Time;durP1;ratioP1;P1;durP2;ratioP2;P2;SDS_P1;SDS_P2;PMS_P1;PMS_P2;Temp;Humidity;BMP_temperature;BMP_pressure;BME280_temperature;BME280_humidity;BME280_pressure;Samples;Min_cycle;Max_cycle;Signal;HPM_P1;HPM_P2
2023/10/30 00:00:58;;;;;;;5.03;1.27;;;11.30;99.90;;;;;;4925019;29;20229;-69
2023/10/30 00:03:23;;;;;;;4.17;1.53;;;11.40;99.90;;;;;;4942708;29;20206;-71
2023/10/30 00:05:49;;;;;;;4.10;1.47;;;11.40;99.90;;;;;;4943664;29;20472;-69
2023/10/30 00:08:16;;;;;;;5.40;1.97;;;11.40;99.90;;;;;;4921842;29;20190;-69
2023/10/30 00:10:42;;;;;;;4.63;1.60;;;11.40;99.90;;;;;;4934242;29;20198;-70
2023/10/30 00:13:07;;;;;;;3.57;1.13;;;11.40;99.90;;;;;;4928162;29;20518;-69
2023/10/30 00:15:33;;;;;;;4.50;1.43;;;11.40;99.90;;;;;;4927630;29;20206;-70
2023/10/30 00:17:58;;;;;;;2.77;1.13;;;11.40;99.90;;;;;;4932900;29;20190;-70
2023/10/30 00:20:24;;;;;;;2.63;1.40;;;11.40;99.90;;;;;;4926190;29;20198;-70
2023/10/30 00:22:50;;;;;;;6.17;1.63;;;11.40;99.90;;;;;;4942636;29;20213;-70
2023/10/30 00:25:16;;;;;;;4.70;1.17;;;11.40;99.90;;;;;;4930444;29;20218;-69
2023/10/30 00:27:42;;;;;;;5.47;1.40;;;11.40;99.90;;;;;;4924883;29;20199;-70
2023/10/30 00:30:09;;;;;;;9.17;2.17;;;11.40;99.90;;;;;;4926063;29;20422;-70
2023/10/30 00:32:35;;;;;;;3.13;1.20;;;11.40;99.90;;;;;;4927601;29;20465;-69
2023/10/30 00:35:01;;;;;;;2.80;1.40;;;11.40;99.90;;;;;;4908973;29;20434;-70
2023/10/30 00:37:27;;;;;;;5.53;1.40;;;11.40;99.90;;;;;;4915847;29;20597;-69
2023/10/30 00:39:54;;;;;;;4.03;1.10;;;11.40;99.90;;;;;;4924268;29;20480;-71
2023/10/30 00:42:25;;;;;;;3.67;1.33;;;11.40;99.90;;;;;;4918306;29;20442;-69
2023/10/30 00:44:51;;;;;;;5.37;1.53;;;11.40;99.90;;;;;;4931551;29;20222;-70
2023/10/30 00:47:17;;;;;;;6.57;1.73;;;11.40;99.90;;;;;;4937755;29;20500;-69
2023/10/30 00:49:43;;;;;;;3.43;1.37;;;11.40;99.90;;;;;;4927585;29;20457;-69
2023/10/30 00:52:08;;;;;;;3.10;1.33;;;11.40;99.90;;;;;;4944973;29;20190;-70
2023/10/30 00:54:35;;;;;;;2.80;1.60;;;11.40;99.90;;;;;;4927602;29;20288;-70
2023/10/30 00:57:00;;;;;;;4.57;1.23;;;11.40;99.90;;;;;;4941104;29;20609;-70
2023/10/30 00:59:26;;;;;;;4.33;1.93;;;11.50;99.90;;;;;;4914969;29;20586;-70
2023/10/30 01:01:51;;;;;;;2.37;1.40;;;11.50;99.90;;;;;;4924115;29;20221;-70
2023/10/30 01:04:17;;;;;;;2.53;1.07;;;11.50;99.90;;;;;;4941256;29;20537;-69
2023/10/30 01:06:42;;;;;;;2.13;1.17;;;11.50;99.90;;;;;;4935047;29;20183;-68
2023/10/30 01:09:08;;;;;;;8.57;1.73;;;11.50;99.90;;;;;;4905077;29;20616;-70
2023/10/30 01:11:34;;;;;;;6.30;1.30;;;11.50;99.90;;;;;;4925097;29;20213;-70
2023/10/30 01:14:01;;;;;;;4.60;1.50;;;11.50;99.90;;;;;;4907725;29;20451;-70
2023/10/30 01:16:26;;;;;;;3.43;1.23;;;11.50;99.90;;;;;;4906235;29;20422;-69
2023/10/30 01:18:52;;;;;;;6.50;1.67;;;11.50;99.90;;;;;;4936705;29;20209;-70
2023/10/30 01:21:20;;;;;;;6.80;1.70;;;11.50;99.90;;;;;;4935908;29;20470;-70
2023/10/30 01:23:45;;;;;;;4.23;1.30;;;11.50;99.90;;;;;;4921586;29;20198;-70
2023/10/30 01:26:11;;;;;;;3.17;1.23;;;11.50;99.90;;;;;;4908925;29;20707;-69
2023/10/30 01:28:37;;;;;;;4.60;1.23;;;11.50;99.90;;;;;;4910495;29;20700;-69
2023/10/30 01:31:04;;;;;;;5.73;1.53;;;11.50;99.90;;;;;;4925065;29;20206;-69
2023/10/30 01:33:30;;;;;;;5.47;1.73;;;11.50;99.90;;;;;;4920553;29;20222;-70
2023/10/30 01:35:56;;;;;;;3.93;1.60;;;11.50;99.90;;;;;;4908967;29;20857;-70
2023/10/30 01:38:21;;;;;;;7.70;1.73;;;11.50;99.90;;;;;;4935162;29;20442;-70
2023/10/30 01:40:51;;;;;;;8.00;1.83;;;11.50;99.90;;;;;;4931691;29;20206;-71
2023/10/30 01:43:30;;;;;;;6.37;1.60;;;11.50;99.90;;;;;;4928021;29;20277;-69
2023/10/30 01:45:56;;;;;;;4.93;1.30;;;11.50;99.90;;;;;;4925454;29;20449;-70
2023/10/30 01:48:23;;;;;;;7.17;1.40;;;11.50;99.90;;;;;;4923109;29;20695;-72
2023/10/30 01:50:50;;;;;;;3.33;1.07;;;11.50;99.90;;;;;;4922858;29;20213;-70
2023/10/30 01:53:19;;;;;;;8.03;1.80;;;11.50;99.90;;;;;;4922073;29;20420;-70
2023/10/30 01:55:45;;;;;;;3.60;1.40;;;11.40;99.90;;;;;;4907643;29;20952;-69
2023/10/30 01:58:11;;;;;;;7.17;1.37;;;11.40;99.90;;;;;;4911267;29;20466;-69
2023/10/30 02:00:38;;;;;;;3.27;1.30;;;11.40;99.90;;;;;;4906957;29;20222;-71
2023/10/30 02:03:04;;;;;;;6.47;1.40;;;11.40;99.90;;;;;;4940624;29;20719;-69
2023/10/30 02:05:29;;;;;;;3.63;1.33;;;11.40;99.90;;;;;;4923222;29;20441;-70
2023/10/30 02:07:56;;;;;;;3.83;1.17;;;11.40;99.90;;;;;;4941479;29;20589;-70
2023/10/30 02:10:21;;;;;;;5.83;1.13;;;11.40;99.90;;;;;;4923886;29;20194;-69
2023/10/30 02:12:52;;;;;;;3.33;1.07;;;11.40;99.90;;;;;;4907368;29;20644;-70
2023/10/30 02:15:18;;;;;;;4.60;1.60;;;11.40;99.90;;;;;;4929102;29;20462;-70
2023/10/30 02:17:43;;;;;;;4.93;1.63;;;11.40;99.90;;;;;;4921917;29;20437;-69
2023/10/30 02:20:13;;;;;;;4.47;1.30;;;11.40;99.90;;;;;;4913968;29;20209;-70
2023/10/30 02:22:39;;;;;;;2.80;1.07;;;11.40;99.90;;;;;;4922417;29;20181;-69
2023/10/30 02:25:05;;;;;;;8.80;1.90;;;11.40;99.90;;;;;;4923220;29;20525;-69
2023/10/30 02:27:31;;;;;;;5.87;1.50;;;11.40;99.90;;;;;;4933590;29;20257;-70
2023/10/30 02:29:58;;;;;;;3.73;1.23;;;11.40;99.90;;;;;;4922849;29;20534;-70
2023/10/30 02:32:23;;;;;;;5.23;1.53;;;11.30;99.90;;;;;;4920338;29;20521;-71
2023/10/30 02:34:49;;;;;;;3.17;1.10;;;11.30;99.90;;;;;;4921498;29;20207;-70
2023/10/30 02:37:14;;;;;;;3.57;1.37;;;11.30;99.90;;;;;;4920969;29;20182;-70
2023/10/30 02:39:40;;;;;;;2.83;1.10;;;11.30;99.90;;;;;;4921230;29;20229;-70
2023/10/30 02:42:08;;;;;;;6.80;1.10;;;11.30;99.90;;;;;;4929869;29;20309;-70
2023/10/30 02:44:33;;;;;;;1.40;0.70;;;11.30;99.90;;;;;;4930176;29;20439;-70
2023/10/30 02:46:59;;;;;;;2.73;1.30;;;11.30;99.90;;;;;;4920466;29;20422;-69
2023/10/30 02:49:25;;;;;;;5.73;1.30;;;11.30;99.90;;;;;;4926957;29;20197;-71
2023/10/30 02:51:51;;;;;;;3.77;1.20;;;11.30;99.90;;;;;;4940654;29;20442;-72
2023/10/30 02:54:17;;;;;;;2.73;1.10;;;11.30;99.90;;;;;;4922593;29;20206;-70
2023/10/30 02:56:42;;;;;;;3.63;1.10;;;11.30;99.90;;;;;;4930909;29;20434;-70
2023/10/30 02:59:08;;;;;;;6.00;1.70;;;11.30;99.90;;;;;;4926714;29;20252;-71
2023/10/30 03:01:34;;;;;;;7.20;1.40;;;11.30;99.90;;;;;;4924159;29;20473;-70
2023/10/30 03:04:01;;;;;;;3.63;1.50;;;11.40;99.90;;;;;;4916658;29;20204;-69
2023/10/30 03:06:27;;;;;;;3.70;1.07;;;11.40;99.90;;;;;;4939439;29;20421;-70
2023/10/30 03:08:52;;;;;;;2.43;1.10;;;11.40;99.90;;;;;;4937578;29;20845;-68
2023/10/30 03:11:20;;;;;;;6.93;1.80;;;11.40;99.90;;;;;;4921098;29;20505;-69
2023/10/30 03:13:45;;;;;;;5.83;1.33;;;11.40;99.90;;;;;;4937980;29;20464;-69
2023/10/30 03:16:11;;;;;;;3.00;1.27;;;11.40;99.90;;;;;;4903106;29;20447;-70
2023/10/30 03:18:37;;;;;;;3.40;1.07;;;11.40;99.90;;;;;;4921092;29;20353;-69
2023/10/30 03:21:04;;;;;;;3.67;1.20;;;11.40;99.90;;;;;;4929675;29;20237;-70
2023/10/30 03:23:29;;;;;;;4.07;1.73;;;11.40;99.90;;;;;;4934275;29;20910;-70
2023/10/30 03:25:55;;;;;;;2.27;1.07;;;11.40;99.90;;;;;;4939120;29;20445;-70
2023/10/30 03:28:20;;;;;;;1.43;0.70;;;11.40;99.90;;;;;;4941327;29;20206;-69
2023/10/30 03:30:46;;;;;;;3.10;1.30;;;11.40;99.90;;;;;;4939931;29;20273;-70
2023/10/30 03:33:11;;;;;;;3.13;1.10;;;11.40;99.90;;;;;;4939806;29;20276;-69
2023/10/30 03:35:38;;;;;;;5.33;1.40;;;11.50;99.90;;;;;;4923570;29;20209;-69
2023/10/30 03:38:04;;;;;;;4.30;1.23;;;11.40;99.90;;;;;;4926608;29;20226;-71
2023/10/30 03:40:29;;;;;;;4.67;1.40;;;11.50;99.90;;;;;;4923792;29;20940;-69
2023/10/30 03:42:55;;;;;;;3.00;1.40;;;11.50;99.90;;;;;;4923780;29;20423;-70
2023/10/30 03:45:20;;;;;;;4.97;1.83;;;11.50;99.90;;;;;;4932214;29;20284;-70
2023/10/30 03:47:46;;;;;;;13.03;1.50;;;11.50;99.90;;;;;;4943072;29;20197;-69
2023/10/30 03:50:16;;;;;;;4.73;1.63;;;11.50;99.90;;;;;;4925654;29;20197;-70
2023/10/30 03:52:41;;;;;;;5.63;1.40;;;11.50;99.90;;;;;;4920145;29;20202;-69
2023/10/30 03:55:07;;;;;;;4.40;1.30;;;11.50;99.90;;;;;;4923146;29;20442;-70
2023/10/30 03:57:33;;;;;;;3.63;1.20;;;11.50;99.90;;;;;;4932214;29;20350;-70
2023/10/30 03:59:58;;;;;;;5.07;1.77;;;11.50;99.90;;;;;;4923679;29;20201;-69
2023/10/30 04:02:24;;;;;;;4.77;1.40;;;11.50;99.90;;;;;;4923141;29;20201;-69
2023/10/30 04:04:49;;;;;;;3.23;1.60;;;11.50;99.90;;;;;;4923496;29;20302;-70
2023/10/30 04:07:17;;;;;;;1.80;0.90;;;11.60;99.90;;;;;;4925856;29;20287;-69
2023/10/30 04:09:42;;;;;;;4.90;1.77;;;11.50;99.90;;;;;;4939004;29;20543;-69
2023/10/30 04:12:08;;;;;;;5.43;2.03;;;11.50;99.90;;;;;;4930092;29;20462;-69
2023/10/30 04:14:33;;;;;;;5.10;2.13;;;11.50;99.90;;;;;;4941242;29;20221;-70
2023/10/30 04:17:02;;;;;;;3.10;1.50;;;11.50;99.90;;;;;;4941119;29;20492;-71
2023/10/30 04:19:28;;;;;;;3.33;1.30;;;11.50;99.90;;;;;;4934871;29;20273;-69
2023/10/30 04:21:54;;;;;;;5.03;1.43;;;11.50;99.90;;;;;;4940601;29;20558;-69
2023/10/30 04:24:19;;;;;;;4.77;1.83;;;11.50;99.90;;;;;;4924853;29;20614;-70
2023/10/30 04:26:45;;;;;;;2.50;1.00;;;11.50;99.90;;;;;;4940913;29;20204;-69
2023/10/30 04:29:10;;;;;;;2.17;1.00;;;11.50;99.90;;;;;;4923235;29;20186;-69
2023/10/30 04:31:36;;;;;;;4.97;1.50;;;11.50;99.90;;;;;;4932371;29;20335;-70
2023/10/30 04:34:03;;;;;;;6.53;2.27;;;11.50;99.90;;;;;;4941402;29;20284;-69
2023/10/30 04:36:28;;;;;;;4.23;1.37;;;11.50;99.90;;;;;;4932110;29;20199;-70
2023/10/30 04:38:54;;;;;;;2.67;0.97;;;11.50;99.90;;;;;;4931026;29;20438;-69
2023/10/30 04:41:19;;;;;;;4.13;1.07;;;11.50;99.90;;;;;;4940904;29;20244;-70
2023/10/30 04:43:45;;;;;;;4.73;1.20;;;11.40;99.90;;;;;;4931405;29;20189;-69
2023/10/30 04:46:10;;;;;;;4.37;1.40;;;11.40;99.90;;;;;;4925685;29;20206;-69
2023/10/30 04:48:37;;;;;;;2.80;1.30;;;11.40;99.90;;;;;;4924208;29;20198;-70
2023/10/30 04:51:03;;;;;;;4.00;1.27;;;11.40;99.90;;;;;;4925295;29;20182;-69
2023/10/30 04:53:29;;;;;;;5.13;1.43;;;11.40;99.90;;;;;;4927564;29;20426;-70
2023/10/30 04:55:56;;;;;;;7.20;1.20;;;11.40;99.90;;;;;;4924684;29;20217;-70
2023/10/30 04:58:22;;;;;;;2.60;1.10;;;11.40;99.90;;;;;;4923483;29;20458;-69
2023/10/30 05:00:48;;;;;;;8.70;1.80;;;11.40;99.90;;;;;;4932443;29;20454;-69
2023/10/30 05:03:14;;;;;;;3.37;1.30;;;11.40;99.90;;;;;;4937024;29;20256;-70
2023/10/30 05:05:40;;;;;;;3.13;1.20;;;11.40;99.90;;;;;;4941837;29;20244;-70
2023/10/30 05:08:05;;;;;;;3.97;1.47;;;11.40;99.90;;;;;;4941088;29;20253;-69
2023/10/30 05:10:31;;;;;;;5.07;1.50;;;11.40;99.90;;;;;;4942072;29;20205;-71
2023/10/30 05:12:57;;;;;;;2.93;1.23;;;11.40;99.90;;;;;;4932467;29;20301;-69
2023/10/30 05:15:23;;;;;;;4.40;1.50;;;11.40;99.90;;;;;;4927641;29;20237;-69
2023/10/30 05:17:48;;;;;;;5.97;1.17;;;11.40;99.90;;;;;;4921592;29;20217;-69
2023/10/30 05:20:14;;;;;;;3.57;1.47;;;11.40;99.90;;;;;;4924165;29;20751;-71
2023/10/30 05:22:41;;;;;;;5.43;1.30;;;11.40;99.90;;;;;;4938081;29;20270;-69
2023/10/30 05:25:07;;;;;;;4.90;1.30;;;11.40;99.90;;;;;;4924793;29;20242;-71
2023/10/30 05:27:32;;;;;;;9.00;1.77;;;11.30;99.90;;;;;;4941749;29;20449;-69
2023/10/30 05:29:58;;;;;;;5.90;1.40;;;11.40;99.90;;;;;;4934447;29;20418;-71
2023/10/30 05:32:24;;;;;;;5.53;1.50;;;11.40;99.90;;;;;;4941947;29;20182;-71
2023/10/30 05:34:50;;;;;;;4.73;1.80;;;11.40;99.90;;;;;;4942230;29;20474;-71
2023/10/30 05:37:16;;;;;;;4.23;1.37;;;11.40;99.90;;;;;;4923285;29;20240;-70
2023/10/30 05:39:45;;;;;;;5.03;1.50;;;11.40;99.90;;;;;;4940586;29;20202;-71
2023/10/30 05:42:10;;;;;;;4.30;1.93;;;11.40;99.90;;;;;;4942425;29;20221;-71
2023/10/30 05:44:36;;;;;;;4.57;1.27;;;11.50;99.90;;;;;;4928336;29;20445;-69
2023/10/30 05:47:02;;;;;;;3.00;1.53;;;11.40;99.90;;;;;;4924403;29;20194;-71
2023/10/30 05:49:28;;;;;;;5.87;1.47;;;11.40;99.90;;;;;;4940977;29;20690;-70
2023/10/30 05:51:54;;;;;;;2.57;1.47;;;11.40;99.90;;;;;;4925102;29;20203;-71
2023/10/30 05:54:20;;;;;;;3.97;1.70;;;11.40;99.90;;;;;;4939612;29;20276;-71
2023/10/30 05:56:46;;;;;;;6.10;1.50;;;11.40;99.90;;;;;;4941243;29;20456;-69
2023/10/30 05:59:12;;;;;;;9.80;2.00;;;11.40;99.90;;;;;;4935523;29;20787;-71
2023/10/30 06:01:37;;;;;;;9.50;2.30;;;11.40;99.90;;;;;;4922348;29;20253;-70
2023/10/30 06:04:04;;;;;;;5.50;1.77;;;11.40;99.90;;;;;;4927628;29;20595;-71
2023/10/30 06:06:29;;;;;;;3.20;1.30;;;11.40;99.90;;;;;;4941714;29;20194;-71
2023/10/30 06:08:55;;;;;;;5.47;1.37;;;11.40;99.90;;;;;;4941953;29;20582;-69
2023/10/30 06:11:21;;;;;;;4.50;2.83;;;11.40;99.90;;;;;;4940196;29;20422;-70
2023/10/30 06:13:46;;;;;;;3.17;1.60;;;11.40;99.90;;;;;;4941563;29;20484;-70
2023/10/30 06:16:16;;;;;;;7.23;2.03;;;11.40;99.90;;;;;;4938496;29;20242;-74
2023/10/30 06:18:42;;;;;;;4.43;1.50;;;11.40;99.90;;;;;;4923452;29;20285;-70
2023/10/30 06:21:14;;;;;;;5.67;1.60;;;11.30;99.90;;;;;;4926959;29;20804;-70
2023/10/30 06:23:40;;;;;;;3.60;1.93;;;11.30;99.90;;;;;;4941725;29;20736;-72
2023/10/30 06:26:13;;;;;;;6.90;1.83;;;11.30;99.90;;;;;;4942465;29;20441;-72
2023/10/30 06:28:40;;;;;;;5.73;1.90;;;11.20;99.90;;;;;;4922776;29;20191;-71
2023/10/30 06:31:19;;;;;;;4.33;1.73;;;11.20;99.90;;;;;;4923591;29;20421;-73
2023/10/30 06:33:45;;;;;;;4.20;1.93;;;11.20;99.90;;;;;;4928594;29;20574;-74
2023/10/30 06:36:11;;;;;;;4.80;1.93;;;11.20;99.90;;;;;;4937162;29;20532;-71
2023/10/30 06:38:37;;;;;;;3.70;1.80;;;11.20;99.90;;;;;;4927116;29;20721;-73
2023/10/30 06:41:04;;;;;;;7.00;1.97;;;11.20;99.90;;;;;;4921437;29;20470;-73
2023/10/30 06:43:30;;;;;;;4.73;1.90;;;11.20;99.90;;;;;;4933325;29;20430;-71
2023/10/30 06:46:00;;;;;;;5.43;1.97;;;11.20;99.90;;;;;;4936479;29;20788;-74
2023/10/30 06:48:26;;;;;;;4.67;1.50;;;11.10;99.90;;;;;;4931907;29;20714;-71
2023/10/30 06:50:51;;;;;;;4.07;1.73;;;11.10;99.90;;;;;;4942984;29;20429;-75
2023/10/30 06:53:17;;;;;;;3.93;2.10;;;11.10;99.90;;;;;;4944228;29;20439;-74
2023/10/30 06:55:42;;;;;;;3.57;1.70;;;11.20;99.90;;;;;;4932930;29;20483;-72
2023/10/30 06:58:08;;;;;;;7.37;2.90;;;11.30;99.90;;;;;;4911267;29;20226;-72
2023/10/30 07:00:34;;;;;;;5.20;2.20;;;11.30;99.90;;;;;;4927691;29;20225;-72
2023/10/30 07:02:59;;;;;;;6.87;2.77;;;11.40;99.90;;;;;;4926349;29;20260;-72
2023/10/30 07:05:25;;;;;;;6.60;2.20;;;11.40;99.90;;;;;;4934144;29;20551;-71
2023/10/30 07:07:51;;;;;;;8.00;3.03;;;11.40;99.90;;;;;;4935775;29;20205;-75
2023/10/30 07:10:16;;;;;;;3.17;2.10;;;11.40;99.90;;;;;;4926868;29;20183;-71
2023/10/30 07:12:42;;;;;;;7.60;2.20;;;11.40;99.90;;;;;;4940757;29;20241;-72
2023/10/30 07:15:08;;;;;;;7.57;2.97;;;11.40;99.90;;;;;;4932419;29;20222;-73
2023/10/30 07:17:33;;;;;;;5.10;2.30;;;11.40;99.90;;;;;;4942116;29;20174;-72
2023/10/30 07:19:59;;;;;;;6.90;2.50;;;11.40;99.90;;;;;;4934436;29;20524;-71
2023/10/30 07:22:26;;;;;;;7.07;2.43;;;11.40;99.90;;;;;;4934518;29;20253;-72
2023/10/30 07:24:51;;;;;;;6.90;2.73;;;11.50;99.90;;;;;;4938076;29;20248;-71
2023/10/30 07:27:18;;;;;;;2.93;2.17;;;11.50;99.90;;;;;;4941566;29;20422;-72
2023/10/30 07:29:44;;;;;;;3.83;2.13;;;11.50;99.90;;;;;;4940553;29;20186;-71
2023/10/30 07:32:09;;;;;;;8.40;2.40;;;11.50;99.90;;;;;;4945686;29;20425;-71
2023/10/30 07:34:35;;;;;;;4.63;2.63;;;11.50;99.90;;;;;;4937097;29;20525;-73
2023/10/30 07:37:00;;;;;;;5.70;3.10;;;11.50;99.90;;;;;;4920510;29;20197;-73
2023/10/30 07:39:26;;;;;;;8.70;2.33;;;11.50;99.90;;;;;;4923354;29;20574;-72
2023/10/30 07:41:51;;;;;;;5.37;2.67;;;11.60;99.90;;;;;;4931488;29;20213;-75
2023/10/30 07:44:17;;;;;;;8.93;4.00;;;11.70;99.90;;;;;;4918444;29;20210;-73
2023/10/30 07:46:43;;;;;;;8.33;3.10;;;11.70;99.90;;;;;;4944728;29;20194;-72
2023/10/30 07:49:08;;;;;;;5.37;2.33;;;11.80;99.90;;;;;;4927377;29;20224;-73
2023/10/30 07:51:34;;;;;;;6.70;2.90;;;11.90;99.90;;;;;;4937161;29;20222;-73
2023/10/30 07:54:00;;;;;;;4.37;3.13;;;11.90;99.90;;;;;;4932485;29;20278;-71
2023/10/30 07:56:25;;;;;;;4.67;2.50;;;12.00;99.90;;;;;;4919733;29;20257;-72
2023/10/30 07:58:51;;;;;;;6.63;3.00;;;12.00;99.90;;;;;;4932391;29;20232;-75
2023/10/30 08:01:20;;;;;;;13.60;3.40;;;12.10;99.90;;;;;;4937278;29;20225;-73
2023/10/30 08:03:46;;;;;;;6.07;2.90;;;12.20;99.90;;;;;;4915850;29;20254;-73
2023/10/30 08:06:15;;;;;;;6.90;2.73;;;12.30;99.90;;;;;;4927434;29;20446;-73
2023/10/30 08:08:41;;;;;;;5.67;2.60;;;12.30;99.90;;;;;;4912899;29;20425;-71
2023/10/30 08:11:06;;;;;;;7.53;3.40;;;12.40;99.90;;;;;;4928286;29;20444;-72
2023/10/30 08:13:33;;;;;;;4.57;2.70;;;12.40;99.90;;;;;;4914157;29;20456;-71
2023/10/30 08:15:59;;;;;;;4.53;2.57;;;12.50;99.90;;;;;;4934643;29;20225;-72
2023/10/30 08:18:25;;;;;;;4.10;2.30;;;12.50;99.90;;;;;;4933855;29;20732;-71
2023/10/30 08:20:51;;;;;;;6.70;3.20;;;12.60;99.90;;;;;;4942596;29;20209;-72
2023/10/30 08:23:16;;;;;;;6.60;2.77;;;12.60;99.90;;;;;;4937375;29;20228;-70
2023/10/30 08:25:43;;;;;;;7.43;2.93;;;12.70;99.90;;;;;;4935615;29;20221;-72
2023/10/30 08:28:08;;;;;;;6.20;2.33;;;12.80;99.90;;;;;;4937299;29;20204;-76
2023/10/30 08:30:34;;;;;;;3.37;2.30;;;12.90;99.90;;;;;;4943941;29;20497;-73
2023/10/30 08:33:03;;;;;;;4.63;2.40;;;13.10;99.90;;;;;;4941293;29;20203;-72
2023/10/30 08:35:30;;;;;;;5.93;2.70;;;13.20;99.90;;;;;;4918661;29;20255;-71
2023/10/30 08:37:57;;;;;;;6.50;3.30;;;13.40;99.90;;;;;;4937166;29;20874;-71
2023/10/30 08:40:26;;;;;;;4.40;1.77;;;13.60;99.90;;;;;;4944772;29;20435;-72
2023/10/30 08:42:52;;;;;;;2.80;1.93;;;13.80;99.90;;;;;;4921814;29;20518;-71
2023/10/30 08:45:17;;;;;;;2.63;2.00;;;13.90;99.90;;;;;;4920775;29;20499;-73
2023/10/30 08:47:43;;;;;;;5.23;2.10;;;14.10;99.90;;;;;;4936330;29;20342;-71
2023/10/30 08:50:10;;;;;;;6.00;2.60;;;14.20;99.90;;;;;;4921557;29;20269;-70
2023/10/30 08:52:36;;;;;;;5.50;2.70;;;14.30;99.90;;;;;;4945482;29;20186;-71
2023/10/30 08:55:04;;;;;;;5.60;3.10;;;14.40;99.90;;;;;;4930870;29;20450;-72
2023/10/30 08:57:30;;;;;;;5.23;2.37;;;14.50;99.90;;;;;;4919274;29;20473;-74
2023/10/30 08:59:55;;;;;;;6.23;2.80;;;14.60;99.90;;;;;;4923419;29;20504;-73
2023/10/30 09:02:21;;;;;;;5.33;2.83;;;14.70;99.90;;;;;;4917948;29;20246;-75
2023/10/30 09:04:47;;;;;;;2.83;1.87;;;14.70;99.90;;;;;;4913995;29;20272;-74
2023/10/30 09:07:12;;;;;;;5.47;2.00;;;14.70;99.90;;;;;;4933003;29;20216;-71
2023/10/30 09:09:38;;;;;;;4.40;2.13;;;14.80;99.90;;;;;;4935186;29;20202;-71
2023/10/30 09:12:04;;;;;;;4.17;2.00;;;14.80;99.90;;;;;;4937330;29;20208;-73
2023/10/30 09:14:29;;;;;;;3.83;2.00;;;14.90;99.90;;;;;;4932807;29;20210;-77
2023/10/30 09:16:55;;;;;;;4.53;2.47;;;15.00;99.90;;;;;;4928084;29;20418;-70
2023/10/30 09:19:21;;;;;;;3.20;2.00;;;15.10;99.90;;;;;;4941458;29;20213;-69
2023/10/30 09:21:46;;;;;;;2.90;1.70;;;15.10;99.90;;;;;;4938918;29;20209;-71
2023/10/30 09:24:12;;;;;;;6.43;1.57;;;15.20;99.90;;;;;;4914999;29;20175;-71
2023/10/30 09:26:37;;;;;;;3.10;1.90;;;15.20;99.90;;;;;;4912706;29;20221;-74
2023/10/30 09:29:03;;;;;;;3.07;1.80;;;15.30;99.90;;;;;;4944852;29;20436;-69
2023/10/30 09:31:30;;;;;;;3.77;2.37;;;15.40;99.90;;;;;;4934240;29;20184;-73
2023/10/30 09:33:59;;;;;;;4.43;2.47;;;15.40;99.90;;;;;;4935928;29;20202;-71
2023/10/30 09:36:25;;;;;;;3.23;2.03;;;15.50;99.90;;;;;;4924368;29;20421;-70
2023/10/30 09:38:53;;;;;;;4.50;2.23;;;15.50;99.90;;;;;;4928659;29;20454;-73
2023/10/30 09:41:19;;;;;;;4.00;2.80;;;15.50;99.90;;;;;;4937043;29;20475;-73
2023/10/30 09:43:52;;;;;;;6.67;2.53;;;15.50;99.90;;;;;;4908709;29;20438;-73
2023/10/30 09:46:25;;;;;;;6.57;3.73;;;15.40;99.90;;;;;;4942971;29;20485;-72
2023/10/30 09:48:52;;;;;;;7.13;2.37;;;15.40;99.90;;;;;;4920450;29;20462;-73
2023/10/30 09:51:20;;;;;;;3.13;2.13;;;15.30;99.90;;;;;;4941087;29;20441;-73
2023/10/30 09:53:46;;;;;;;2.63;1.80;;;15.30;99.90;;;;;;4918303;29;20678;-74
2023/10/30 09:56:15;;;;;;;4.53;2.20;;;15.30;99.90;;;;;;4919148;29;20509;-74
2023/10/30 09:58:41;;;;;;;3.27;2.03;;;15.40;99.90;;;;;;4922414;29;20912;-73
2023/10/30 10:01:07;;;;;;;5.47;2.10;;;15.40;99.90;;;;;;4915839;29;20541;-75
2023/10/30 10:03:32;;;;;;;4.40;2.30;;;15.40;99.90;;;;;;4935884;29;20197;-71
2023/10/30 10:05:59;;;;;;;3.80;2.00;;;15.40;99.90;;;;;;4911074;29;20205;-70
2023/10/30 10:08:26;;;;;;;2.93;2.30;;;15.30;99.90;;;;;;4929652;29;20195;-69
2023/10/30 10:11:01;;;;;;;4.43;1.80;;;15.40;99.90;;;;;;4909620;29;20722;-73
2023/10/30 10:13:31;;;;;;;5.13;2.17;;;15.40;99.90;;;;;;4931995;29;20455;-73
2023/10/30 10:15:57;;;;;;;4.57;2.10;;;15.50;99.90;;;;;;4934984;29;20458;-75
2023/10/30 10:18:27;;;;;;;8.57;1.90;;;15.60;99.90;;;;;;4933037;29;20429;-72
2023/10/30 10:20:56;;;;;;;4.80;1.83;;;15.70;99.90;;;;;;4926726;29;20481;-75
2023/10/30 10:23:23;;;;;;;3.07;1.80;;;15.80;99.90;;;;;;4921403;29;20438;-74
2023/10/30 10:25:54;;;;;;;2.87;1.90;;;15.80;99.90;;;;;;4936793;29;20438;-75
2023/10/30 10:28:24;;;;;;;3.37;2.27;;;15.80;99.90;;;;;;4917594;29;20430;-75
2023/10/30 10:30:51;;;;;;;4.07;2.30;;;15.90;99.90;;;;;;4908831;29;20467;-74
2023/10/30 10:33:37;;;;;;;5.20;3.20;;;16.10;99.90;;;;;;4917324;29;20448;-73
2023/10/30 10:36:04;;;;;;;5.13;2.90;;;16.30;99.90;;;;;;4920471;29;20473;-74
2023/10/30 10:38:33;;;;;;;6.77;2.93;;;16.30;99.90;;;;;;4924225;29;20417;-75
2023/10/30 10:40:59;;;;;;;4.37;3.10;;;16.30;99.90;;;;;;4919614;29;20942;-75
2023/10/30 10:43:28;;;;;;;4.23;2.50;;;16.20;99.90;;;;;;4912902;29;20423;-72
2023/10/30 10:45:56;;;;;;;8.83;3.80;;;16.20;99.90;;;;;;4934605;29;20522;-72
2023/10/30 10:48:23;;;;;;;8.17;2.70;;;16.20;99.90;;;;;;4937998;29;20437;-75
2023/10/30 10:50:49;;;;;;;10.40;3.67;;;16.20;99.90;;;;;;4928221;29;20847;-72
2023/10/30 10:53:21;;;;;;;4.67;2.90;;;16.30;99.90;;;;;;4931017;29;20455;-75
2023/10/30 10:55:49;;;;;;;5.63;2.30;;;16.30;99.90;;;;;;4905801;29;20449;-75
2023/10/30 10:58:45;;;;;;;3.90;2.27;;;16.20;99.90;;;;;;4924317;29;20478;-74
2023/10/30 11:01:17;;;;;;;2.83;1.50;;;16.00;99.90;;;;;;4931168;29;20490;-74
2023/10/30 11:03:45;;;;;;;8.70;2.03;;;15.90;99.90;;;;;;4924541;29;20452;-72
2023/10/30 11:06:13;;;;;;;3.90;1.50;;;15.90;99.90;;;;;;4923808;29;20830;-74
2023/10/30 11:08:53;;;;;;;2.53;1.60;;;15.90;99.90;;;;;;4934684;29;20430;-75
2023/10/30 11:11:35;;;;;;;3.00;1.57;;;15.90;99.90;;;;;;4941816;29;20441;-72
2023/10/30 11:14:25;;;;;;;3.87;1.80;;;16.00;99.90;;;;;;4933995;29;20429;-73
2023/10/30 11:17:00;;;;;;;7.77;4.40;;;16.20;99.90;;;;;;4918983;29;20498;-74
2023/10/30 11:19:28;;;;;;;3.77;2.90;;;16.50;99.90;;;;;;4886529;29;20450;-73
2023/10/30 11:21:54;;;;;;;2.47;1.43;;;16.70;99.90;;;;;;4942841;29;20530;-72
2023/10/30 11:24:41;;;;;;;2.07;1.00;;;16.80;99.90;;;;;;4937361;29;20443;-74
2023/10/30 11:27:27;;;;;;;1.90;1.23;;;16.90;99.90;;;;;;4934611;29;20429;-74
2023/10/30 11:30:11;;;;;;;2.03;1.10;;;16.90;99.90;;;;;;4907874;29;20451;-75
2023/10/30 11:32:52;;;;;;;1.60;0.90;;;17.00;99.30;;;;;;4940737;29;20459;-71
2023/10/30 11:35:22;;;;;;;1.60;1.03;;;17.00;99.80;;;;;;4940809;29;20469;-72
2023/10/30 11:37:47;;;;;;;1.27;1.03;;;17.00;98.40;;;;;;4940330;29;20449;-74
2023/10/30 11:40:15;;;;;;;1.87;1.33;;;17.00;99.30;;;;;;4926719;29;20438;-73
2023/10/30 11:42:43;;;;;;;3.33;1.00;;;17.10;98.70;;;;;;4901510;29;20188;-72
2023/10/30 11:45:22;;;;;;;3.17;1.23;;;17.00;97.70;;;;;;4924608;29;20959;-75
2023/10/30 11:47:56;;;;;;;3.73;1.30;;;16.90;97.50;;;;;;4939232;29;20698;-71
2023/10/30 11:50:25;;;;;;;2.80;1.20;;;16.80;97.60;;;;;;4935743;29;20450;-72
2023/10/30 11:52:51;;;;;;;3.63;1.17;;;16.70;98.30;;;;;;4929909;29;20415;-72
2023/10/30 11:55:19;;;;;;;1.73;1.20;;;16.70;98.50;;;;;;4941862;29;20538;-73
2023/10/30 11:57:44;;;;;;;2.03;1.13;;;16.70;99.00;;;;;;4938205;29;20262;-76
2023/10/30 12:00:11;;;;;;;1.90;1.23;;;16.60;99.50;;;;;;4929477;29;20426;-73
2023/10/30 12:02:41;;;;;;;1.83;1.20;;;16.50;99.90;;;;;;4919946;29;20230;-72
2023/10/30 12:05:08;;;;;;;3.53;1.33;;;16.60;99.90;;;;;;4942175;29;20498;-75
2023/10/30 12:07:34;;;;;;;2.40;1.43;;;16.60;99.90;;;;;;4932117;29;20709;-73
2023/10/30 12:10:01;;;;;;;2.13;1.30;;;16.70;99.90;;;;;;4946392;29;20445;-75
2023/10/30 12:12:27;;;;;;;2.07;1.20;;;16.70;99.90;;;;;;4942731;29;20270;-74
2023/10/30 12:14:55;;;;;;;2.23;0.83;;;16.70;99.90;;;;;;4922252;29;20466;-77
2023/10/30 12:17:21;;;;;;;2.80;0.90;;;16.70;99.90;;;;;;4934079;29;20606;-73
2023/10/30 12:19:47;;;;;;;2.80;1.43;;;16.80;99.90;;;;;;4923127;29;20441;-74
2023/10/30 12:22:12;;;;;;;1.80;1.00;;;16.80;99.60;;;;;;4918777;29;20223;-74
2023/10/30 12:24:38;;;;;;;2.63;0.70;;;16.90;98.90;;;;;;4928086;29;20324;-72
2023/10/30 12:27:03;;;;;;;2.77;1.50;;;16.80;99.00;;;;;;4937851;29;20214;-76
2023/10/30 12:29:29;;;;;;;1.30;0.83;;;16.80;99.20;;;;;;4926765;29;20224;-73
2023/10/30 12:32:05;;;;;;;2.20;1.20;;;16.90;98.30;;;;;;4925627;29;20216;-74
2023/10/30 12:34:35;;;;;;;3.33;1.37;;;16.80;98.70;;;;;;4924331;29;20289;-73
2023/10/30 12:37:24;;;;;;;3.10;1.57;;;16.70;99.30;;;;;;4917927;29;20439;-75
2023/10/30 12:40:09;;;;;;;4.00;1.30;;;16.70;99.90;;;;;;4924576;29;20507;-72
2023/10/30 12:42:41;;;;;;;4.10;1.50;;;16.70;99.10;;;;;;4924643;29;20473;-76
2023/10/30 12:45:15;;;;;;;2.30;1.70;;;16.70;99.70;;;;;;4927066;29;20834;-75